Terminal Aerodrome Forecast
Issued by NWS

Current Version | Previous Version | Text Only | Print | Product List | Glossary Off
Versions: 1 2 3 4 5 6 7 8 9 10 11 12 13 14 15 16 17 18 19 20 21 22 23 24 25 26 27 28 29 30

000
FTUS41 KPBZ 201018 AAA
TAFHLG
TAF AMD
KHLG 201018Z 2010/2106 00000KT 4SM BR SCT250
      TEMPO 2010/2012 2SM BR
     FM201400 25007KT P6SM SCT045
     FM202200 23008KT P6SM VCTS BKN045CB
     FM210100 24006KT P6SM VCSH BKN035=

USA.gov is the U.S. government's official web portal to all federal, state and local government web resources and services.